Time;durP1;ratioP1;P1;durP2;ratioP2;P2;SDS_P1;SDS_P2;PMS_P1;PMS_P2;Temp;Humidity;BMP_temperature;BMP_pressure;BME280_temperature;BME280_humidity;BME280_pressure;Samples;Min_cycle;Max_cycle;Signal;HPM_P1;HPM_P2
2021/10/12 00:02:02;;;;;;;16.50;8.98;;;;;;;13.11;62.92;93441.69;5017184;28;20403;-73
2021/10/12 00:04:28;;;;;;;21.27;10.77;;;;;;;13.13;62.94;93446.72;5020009;28;20057;-73
2021/10/12 00:06:53;;;;;;;19.50;9.77;;;;;;;13.19;62.45;93432.00;5014766;28;20413;-73
2021/10/12 00:09:19;;;;;;;13.60;9.00;;;;;;;13.26;62.44;93442.88;5010509;28;20321;-71
2021/10/12 00:11:44;;;;;;;14.35;8.55;;;;;;;13.23;62.09;93436.34;5016868;28;20044;-72
2021/10/12 00:14:10;;;;;;;13.70;7.93;;;;;;;13.19;62.50;93440.03;5015593;28;20037;-72
2021/10/12 00:16:35;;;;;;;11.88;6.32;;;;;;;13.05;61.88;93440.41;5017266;28;20025;-73
2021/10/12 00:19:01;;;;;;;12.35;6.78;;;;;;;13.09;61.78;93441.28;5011131;28;20094;-73
2021/10/12 00:21:26;;;;;;;9.07;6.68;;;;;;;12.99;61.85;93431.06;5013054;28;20045;-72
2021/10/12 00:23:52;;;;;;;10.65;5.35;;;;;;;13.06;61.40;93433.91;5013986;28;20053;-72
2021/10/12 00:26:18;;;;;;;8.75;4.85;;;;;;;12.89;61.79;93423.50;5010786;28;20484;-72
2021/10/12 00:28:43;;;;;;;10.43;5.90;;;;;;;12.86;61.64;93438.28;5012672;28;20048;-72
2021/10/12 00:31:09;;;;;;;12.02;5.68;;;;;;;12.93;61.71;93442.28;5011354;28;20063;-72
2021/10/12 00:33:34;;;;;;;9.70;5.43;;;;;;;12.99;61.22;93440.94;5017017;28;20038;-71
2021/10/12 00:36:00;;;;;;;12.07;6.00;;;;;;;12.85;61.02;93436.75;5016104;28;20033;-72
2021/10/12 00:38:25;;;;;;;8.25;5.13;;;;;;;12.84;60.83;93429.06;5011145;28;20029;-72
2021/10/12 00:40:51;;;;;;;9.90;5.95;;;;;;;12.78;61.01;93444.53;5006382;28;20434;-72
2021/10/12 00:43:17;;;;;;;9.63;6.03;;;;;;;12.72;61.71;93453.09;5015551;28;20021;-73
2021/10/12 00:45:43;;;;;;;8.65;5.72;;;;;;;12.54;62.27;93443.72;5014205;28;20377;-73
2021/10/12 00:48:09;;;;;;;10.90;5.35;;;;;;;12.57;62.45;93451.06;5016152;28;20045;-72
2021/10/12 00:50:37;;;;;;;12.00;5.93;;;;;;;12.64;62.43;93441.44;5011587;28;20467;-73
2021/10/12 00:53:03;;;;;;;7.90;4.93;;;;;;;12.53;62.17;93434.94;5008557;28;20053;-72
2021/10/12 00:55:29;;;;;;;7.07;4.70;;;;;;;12.34;62.58;93426.72;5015704;28;20120;-73
2021/10/12 00:57:55;;;;;;;9.38;4.53;;;;;;;12.39;62.13;93439.84;5011130;28;20557;-73
2021/10/12 01:00:22;;;;;;;8.27;4.88;;;;;;;12.34;62.90;93448.06;5011449;28;20038;-74
2021/10/12 01:02:48;;;;;;;8.35;5.07;;;;;;;12.27;62.94;93439.84;5014887;28;20041;-73
2021/10/12 01:05:14;;;;;;;8.90;5.38;;;;;;;12.17;63.00;93437.63;5005944;28;20041;-73
2021/10/12 01:07:39;;;;;;;9.40;5.20;;;;;;;12.29;63.29;93453.59;5017134;28;20041;-72
2021/10/12 01:10:06;;;;;;;7.00;4.07;;;;;;;12.37;62.39;93458.84;5004625;28;20033;-72
2021/10/12 01:12:32;;;;;;;6.75;4.22;;;;;;;12.23;62.79;93446.94;5012311;28;20053;-71
2021/10/12 01:14:58;;;;;;;7.40;4.18;;;;;;;12.28;62.63;93444.06;5008413;28;20033;-71
2021/10/12 01:17:24;;;;;;;13.60;6.05;;;;;;;12.26;63.30;93455.06;5011794;28;20057;-71
2021/10/12 01:19:49;;;;;;;18.27;10.18;;;;;;;12.33;63.19;93452.63;5009334;28;20495;-72
2021/10/12 01:22:15;;;;;;;14.13;8.05;;;;;;;12.46;62.67;93453.41;5012606;28;20032;-72
2021/10/12 01:24:41;;;;;;;57.22;25.13;;;;;;;12.42;62.58;93449.84;5015004;28;20037;-73
2021/10/12 01:27:06;;;;;;;22.38;8.90;;;;;;;12.47;62.49;93454.94;5013511;28;20124;-71
2021/10/12 01:29:33;;;;;;;14.93;7.47;;;;;;;12.57;62.04;93454.50;5011863;28;20036;-71
2021/10/12 01:31:59;;;;;;;13.27;7.00;;;;;;;12.55;61.98;93454.09;5014880;28;20037;-71
2021/10/12 01:34:24;;;;;;;27.50;13.90;;;;;;;12.62;61.73;93454.31;5009090;28;20049;-72
2021/10/12 01:36:50;;;;;;;8.07;5.03;;;;;;;12.70;60.92;93456.13;5011788;28;20067;-72
2021/10/12 01:39:17;;;;;;;5.82;2.58;;;;;;;12.71;61.01;93457.66;5014735;28;20098;-72
2021/10/12 01:41:43;;;;;;;5.50;2.75;;;;;;;12.54;61.12;93441.06;5008561;28;20033;-72
2021/10/12 01:44:11;;;;;;;4.40;2.40;;;;;;;12.66;60.43;93462.44;5009016;28;20266;-74
2021/10/12 01:46:37;;;;;;;2.83;2.47;;;;;;;12.50;60.39;93437.53;5011611;28;20599;-72
2021/10/12 01:49:03;;;;;;;16.50;6.15;;;;;;;12.47;60.25;93461.06;5011756;28;20037;-72
2021/10/12 01:51:28;;;;;;;2.33;1.88;;;;;;;12.41;59.60;93440.31;5008420;28;20092;-71
2021/10/12 01:53:54;;;;;;;5.18;1.90;;;;;;;12.47;59.62;93446.94;5002343;28;20058;-72
2021/10/12 01:56:19;;;;;;;1.77;1.35;;;;;;;12.17;59.52;93400.28;5015834;28;20555;-72
2021/10/12 01:58:50;;;;;;;1.42;1.10;;;;;;;12.35;59.34;93438.97;5007680;28;20036;-71
2021/10/12 02:01:20;;;;;;;1.20;1.10;;;;;;;12.31;58.84;93433.53;5007923;28;20267;-71
2021/10/12 02:03:46;;;;;;;1.20;1.10;;;;;;;12.24;58.82;93435.16;5002679;28;20429;-71
2021/10/12 02:06:11;;;;;;;1.45;1.05;;;;;;;12.18;58.77;93439.16;5013972;28;20535;-72
2021/10/12 02:08:36;;;;;;;1.25;1.10;;;;;;;11.96;59.21;93427.81;5012807;28;20116;-72
2021/10/12 02:11:03;;;;;;;1.52;1.13;;;;;;;11.79;59.78;93401.31;5011219;28;20559;-72
2021/10/12 02:13:29;;;;;;;2.20;1.38;;;;;;;11.76;60.16;93407.31;5012394;28;20743;-72
2021/10/12 02:15:54;;;;;;;2.28;1.30;;;;;;;11.67;60.77;93388.00;5022454;28;20052;-72
2021/10/12 02:18:19;;;;;;;1.75;1.65;;;;;;;11.62;61.23;93388.22;5009988;28;20033;-72
2021/10/12 02:20:46;;;;;;;1.40;1.08;;;;;;;11.38;61.07;93391.53;5011535;28;20106;-71
2021/10/12 02:23:11;;;;;;;1.30;1.10;;;;;;;11.41;60.50;93404.19;5014611;28;20109;-72
2021/10/12 02:25:36;;;;;;;1.05;1.00;;;;;;;11.04;60.96;93381.97;5012089;28;20113;-73
2021/10/12 02:28:02;;;;;;;1.95;1.45;;;;;;;10.90;61.35;93394.78;5015490;28;20392;-72
2021/10/12 02:30:27;;;;;;;1.08;0.98;;;;;;;10.66;62.43;93403.34;5012274;28;20051;-73
2021/10/12 02:32:53;;;;;;;1.40;1.25;;;;;;;10.45;63.52;93396.47;5001085;28;20036;-72
2021/10/12 02:35:18;;;;;;;1.05;0.95;;;;;;;10.37;63.71;93384.78;5011034;28;20034;-72
2021/10/12 02:37:43;;;;;;;2.97;1.30;;;;;;;10.38;64.12;93407.59;5010069;28;20434;-72
2021/10/12 02:40:10;;;;;;;1.77;1.17;;;;;;;10.42;64.20;93405.06;5008142;28;20039;-72
2021/10/12 02:42:35;;;;;;;2.60;1.75;;;;;;;10.32;64.03;93408.84;5010981;28;20033;-72
2021/10/12 02:45:01;;;;;;;1.00;0.93;;;;;;;10.09;65.14;93402.25;5013391;28;20037;-74
2021/10/12 02:47:26;;;;;;;2.33;1.10;;;;;;;10.02;65.76;93410.72;5012913;28;20487;-72
2021/10/12 02:49:52;;;;;;;1.20;1.10;;;;;;;9.91;65.89;93417.47;5010194;28;20090;-73
2021/10/12 02:52:17;;;;;;;1.25;1.00;;;;;;;9.91;65.52;93411.38;5012075;28;20148;-72
2021/10/12 02:54:42;;;;;;;0.90;0.90;;;;;;;9.74;65.93;93402.38;5011319;28;20680;-73
2021/10/12 02:57:08;;;;;;;1.10;1.00;;;;;;;9.97;65.97;93418.09;5012800;28;20037;-73
2021/10/12 02:59:33;;;;;;;1.10;1.00;;;;;;;9.83;65.78;93397.00;5012625;28;20030;-73
2021/10/12 03:01:59;;;;;;;1.02;0.93;;;;;;;9.92;65.89;93412.94;5016150;28;20041;-74
2021/10/12 03:04:24;;;;;;;1.42;1.30;;;;;;;9.89;65.90;93412.47;5012196;28;20507;-73
2021/10/12 03:06:49;;;;;;;0.77;0.77;;;;;;;9.88;65.10;93410.13;5017455;28;20049;-72
2021/10/12 03:09:15;;;;;;;1.05;0.95;;;;;;;10.02;65.04;93413.38;5004994;28;20116;-72
2021/10/12 03:11:40;;;;;;;1.45;1.00;;;;;;;10.00;65.20;93410.25;5008348;28;20626;-72
2021/10/12 03:14:06;;;;;;;0.80;0.80;;;;;;;10.21;64.44;93413.75;5006555;28;20038;-73
2021/10/12 03:16:31;;;;;;;0.70;0.70;;;;;;;10.13;64.28;93417.22;5015946;28;20140;-72
2021/10/12 03:18:56;;;;;;;0.85;0.85;;;;;;;10.10;64.02;93401.16;5018339;28;20083;-72
2021/10/12 03:21:23;;;;;;;0.82;0.82;;;;;;;10.01;64.91;93382.59;5016265;28;20045;-73
2021/10/12 03:23:48;;;;;;;0.82;0.65;;;;;;;10.08;64.40;93385.50;5018253;28;20038;-72
2021/10/12 03:26:14;;;;;;;1.38;1.20;;;;;;;9.99;64.47;93390.09;5016073;28;20047;-72
2021/10/12 03:28:39;;;;;;;1.00;0.90;;;;;;;9.87;64.67;93377.50;5014853;28;21348;-72
2021/10/12 03:31:05;;;;;;;0.88;0.88;;;;;;;10.09;64.73;93404.91;5015394;28;20519;-72
2021/10/12 03:33:30;;;;;;;0.80;0.80;;;;;;;9.84;64.53;93382.66;5011919;28;20034;-72
2021/10/12 03:35:57;;;;;;;0.95;0.70;;;;;;;9.80;64.51;93384.38;5012525;28;20030;-72
2021/10/12 03:38:24;;;;;;;0.77;0.77;;;;;;;9.73;65.19;93406.09;5014492;28;20033;-74
2021/10/12 03:40:50;;;;;;;0.70;0.70;;;;;;;9.76;65.22;93408.16;5015576;28;20025;-72
2021/10/12 03:43:16;;;;;;;1.02;0.88;;;;;;;9.65;64.99;93382.25;5009726;28;20502;-73
2021/10/12 03:45:41;;;;;;;0.65;0.65;;;;;;;9.82;64.83;93414.84;5018136;28;20133;-72
2021/10/12 03:48:07;;;;;;;0.70;0.70;;;;;;;9.79;64.32;93401.41;5011456;28;20037;-72
2021/10/12 03:50:32;;;;;;;0.93;0.70;;;;;;;9.79;65.11;93404.06;5015990;28;20200;-72
2021/10/12 03:52:57;;;;;;;0.70;0.70;;;;;;;9.67;65.42;93403.97;5012316;28;20053;-72
2021/10/12 03:55:24;;;;;;;1.30;0.90;;;;;;;9.48;64.98;93380.44;5025364;28;20043;-72
2021/10/12 03:57:50;;;;;;;0.90;0.90;;;;;;;9.69;65.14;93412.38;5016167;28;20099;-72
2021/10/12 04:00:16;;;;;;;0.80;0.80;;;;;;;9.73;65.30;93413.31;5014479;28;20033;-72
2021/10/12 04:02:41;;;;;;;0.80;0.80;;;;;;;9.68;65.20;93406.28;5013974;28;20053;-72
2021/10/12 04:05:07;;;;;;;0.95;0.90;;;;;;;9.63;65.13;93387.09;5008839;28;20132;-73
2021/10/12 04:07:32;;;;;;;0.80;0.80;;;;;;;9.72;65.06;93406.44;5016787;28;20033;-71
2021/10/12 04:09:58;;;;;;;0.80;0.80;;;;;;;9.54;65.02;93405.69;5016393;28;20040;-72
2021/10/12 04:12:23;;;;;;;0.70;0.70;;;;;;;9.56;65.10;93402.72;5009517;28;20041;-72
2021/10/12 04:14:49;;;;;;;0.70;0.70;;;;;;;9.44;65.30;93392.75;5012225;28;20784;-71
2021/10/12 04:17:14;;;;;;;1.40;0.93;;;;;;;9.39;65.83;93399.00;5007496;28;20096;-72
2021/10/12 04:19:39;;;;;;;0.73;0.73;;;;;;;9.43;66.03;93393.88;5016441;28;20399;-72
2021/10/12 04:22:05;;;;;;;0.70;0.70;;;;;;;9.32;66.31;93398.72;5012142;28;20057;-72
2021/10/12 04:24:30;;;;;;;0.70;0.70;;;;;;;9.28;66.41;93392.47;5016207;28;20507;-72
2021/10/12 04:26:56;;;;;;;0.60;0.60;;;;;;;9.10;66.80;93374.19;5008695;28;20936;-72
2021/10/12 04:29:22;;;;;;;1.17;0.73;;;;;;;9.25;67.05;93387.78;5014987;28;20038;-72
2021/10/12 04:31:47;;;;;;;1.70;1.00;;;;;;;9.19;67.27;93389.06;5011911;28;20032;-72
2021/10/12 04:34:13;;;;;;;1.00;0.90;;;;;;;9.21;66.26;93383.44;5012224;28;20468;-72
2021/10/12 04:36:38;;;;;;;0.68;0.68;;;;;;;9.01;67.00;93403.38;5009194;28;20048;-71
2021/10/12 04:39:05;;;;;;;0.77;0.77;;;;;;;8.90;66.85;93376.38;5008987;28;20395;-72
2021/10/12 04:41:31;;;;;;;0.60;0.60;;;;;;;8.78;67.75;93378.13;5012483;28;20037;-72
2021/10/12 04:43:57;;;;;;;0.88;0.70;;;;;;;8.66;68.55;93391.22;5010336;28;20613;-72
2021/10/12 04:46:22;;;;;;;0.85;0.70;;;;;;;8.42;69.33;93376.53;5018043;28;20446;-73
2021/10/12 04:48:48;;;;;;;0.75;0.75;;;;;;;8.57;69.16;93393.84;5009298;28;20045;-72
2021/10/12 04:51:13;;;;;;;0.73;0.73;;;;;;;8.53;69.42;93390.25;5014266;28;20052;-72
2021/10/12 04:53:40;;;;;;;0.70;0.70;;;;;;;8.41;69.61;93372.31;5009225;28;20594;-72
2021/10/12 04:56:06;;;;;;;1.92;1.40;;;;;;;8.46;70.09;93379.34;5008604;28;20045;-72
2021/10/12 04:58:31;;;;;;;0.77;0.77;;;;;;;8.56;69.25;93366.56;5015096;28;20037;-71
2021/10/12 05:00:56;;;;;;;0.60;0.60;;;;;;;8.61;68.99;93388.72;5007485;28;20037;-72
2021/10/12 05:03:22;;;;;;;0.70;0.70;;;;;;;8.62;69.33;93392.91;5014192;28;20045;-73
2021/10/12 05:05:52;;;;;;;0.70;0.70;;;;;;;8.40;69.88;93368.13;5009208;28;20127;-72
2021/10/12 05:08:18;;;;;;;0.80;0.80;;;;;;;8.53;69.66;93390.25;5002950;28;20116;-72
2021/10/12 05:10:43;;;;;;;1.75;0.70;;;;;;;8.62;69.47;93396.34;5012864;28;20032;-72
2021/10/12 05:13:09;;;;;;;1.20;1.00;;;;;;;8.69;69.10;93401.19;5007664;28;20028;-73
2021/10/12 05:15:36;;;;;;;0.80;0.80;;;;;;;8.79;68.69;93385.78;5008830;28;20756;-71
2021/10/12 05:18:08;;;;;;;0.68;0.68;;;;;;;8.79;68.49;93377.81;5012825;28;20503;-71
2021/10/12 05:20:34;;;;;;;1.45;0.95;;;;;;;8.90;68.13;93383.59;5015999;28;20076;-71
2021/10/12 05:22:59;;;;;;;1.02;0.80;;;;;;;8.93;67.87;93389.03;5008343;28;20136;-72
2021/10/12 05:25:25;;;;;;;1.80;1.02;;;;;;;8.81;68.40;93394.16;5013142;28;20030;-72
2021/10/12 05:27:50;;;;;;;1.42;0.95;;;;;;;8.87;68.37;93402.75;5005427;28;20048;-72
2021/10/12 05:30:20;;;;;;;2.38;1.27;;;;;;;8.93;68.01;93401.53;5014237;28;20076;-72
2021/10/12 05:32:45;;;;;;;1.20;1.05;;;;;;;8.82;68.53;93408.22;5012428;28;20098;-71
2021/10/12 05:35:10;;;;;;;0.95;0.95;;;;;;;8.75;68.72;93407.91;5010639;28;20029;-72
2021/10/12 05:37:37;;;;;;;1.98;1.20;;;;;;;8.58;69.89;93404.16;5014201;28;20037;-73
2021/10/12 05:40:04;;;;;;;0.90;0.90;;;;;;;8.63;69.45;93400.56;5017712;28;20026;-74
2021/10/12 05:42:29;;;;;;;1.65;1.27;;;;;;;8.74;69.75;93415.09;5010223;28;20544;-72
2021/10/12 05:44:54;;;;;;;1.33;0.88;;;;;;;8.83;69.61;93407.91;5006540;28;20314;-72
2021/10/12 05:47:20;;;;;;;1.02;1.00;;;;;;;8.84;69.43;93403.41;5008763;28;20052;-71
2021/10/12 05:49:45;;;;;;;0.90;0.90;;;;;;;8.78;69.38;93400.13;5011363;28;20679;-73
2021/10/12 05:52:14;;;;;;;4.45;1.10;;;;;;;8.76;69.28;93381.06;5015429;28;20044;-73
2021/10/12 05:54:46;;;;;;;0.70;0.70;;;;;;;8.93;68.85;93404.16;5009065;28;20049;-72
2021/10/12 05:57:19;;;;;;;0.90;0.90;;;;;;;8.82;69.26;93400.25;5012432;28;20438;-72
2021/10/12 05:59:45;;;;;;;0.60;0.60;;;;;;;8.82;69.17;93390.44;5006206;28;20033;-73
2021/10/12 06:02:10;;;;;;;2.08;1.40;;;;;;;8.94;68.95;93398.56;5011694;28;20060;-72
2021/10/12 06:04:36;;;;;;;4.47;2.25;;;;;;;9.03;68.04;93394.03;5012439;28;20402;-73
2021/10/12 06:07:01;;;;;;;8.38;3.08;;;;;;;9.24;67.72;93407.44;5013325;28;20038;-72
2021/10/12 06:09:27;;;;;;;1.35;1.20;;;;;;;9.14;67.38;93399.84;5008332;28;20411;-73
2021/10/12 06:11:52;;;;;;;5.25;2.55;;;;;;;9.27;67.50;93412.16;5013355;28;20041;-72
2021/10/12 06:14:17;;;;;;;3.38;2.03;;;;;;;9.13;67.43;93400.94;5010407;28;20044;-72
2021/10/12 06:16:49;;;;;;;1.77;1.17;;;;;;;8.99;68.33;93405.59;5014303;28;20127;-74
2021/10/12 06:19:15;;;;;;;1.90;1.70;;;;;;;9.01;68.43;93414.00;5013053;28;20056;-72
2021/10/12 06:21:40;;;;;;;1.20;1.10;;;;;;;9.01;68.14;93411.34;5011015;28;20512;-71
2021/10/12 06:24:05;;;;;;;3.65;1.50;;;;;;;9.04;68.15;93408.09;5015216;28;20068;-72
2021/10/12 06:26:32;;;;;;;0.90;0.90;;;;;;;8.90;67.96;93396.84;5010844;28;20053;-72
2021/10/12 06:28:58;;;;;;;1.20;1.10;;;;;;;8.88;68.73;93413.06;5007805;28;20045;-73
2021/10/12 06:31:23;;;;;;;1.05;0.80;;;;;;;8.79;68.25;93401.69;5005864;28;20116;-73
2021/10/12 06:33:50;;;;;;;1.42;1.08;;;;;;;8.82;68.23;93401.03;5008301;28;20602;-72
2021/10/12 06:36:16;;;;;;;0.93;0.93;;;;;;;8.81;68.50;93430.50;5004706;28;20040;-72
2021/10/12 06:38:41;;;;;;;1.17;1.00;;;;;;;8.83;69.30;93423.03;5009570;28;20435;-73
2021/10/12 06:41:06;;;;;;;0.90;0.90;;;;;;;8.68;69.67;93426.13;5014691;28;20042;-72
2021/10/12 06:43:32;;;;;;;1.00;1.00;;;;;;;8.64;69.86;93417.25;5011685;28;20033;-74
2021/10/12 06:45:57;;;;;;;0.80;0.80;;;;;;;8.52;69.93;93423.94;5013036;28;20068;-72
2021/10/12 06:48:23;;;;;;;0.93;0.93;;;;;;;8.52;70.37;93420.50;5007482;28;20131;-73
2021/10/12 06:50:48;;;;;;;1.00;0.90;;;;;;;8.48;70.58;93428.28;5008281;28;20140;-72
2021/10/12 06:53:14;;;;;;;0.95;0.90;;;;;;;8.49;70.62;93435.16;5010480;28;20048;-72
2021/10/12 06:55:39;;;;;;;1.73;1.00;;;;;;;8.47;70.85;93437.31;5009288;28;20053;-72
2021/10/12 06:58:07;;;;;;;1.15;1.05;;;;;;;8.57;70.79;93437.03;5012452;28;20027;-73
2021/10/12 07:00:32;;;;;;;0.85;0.85;;;;;;;8.58;70.63;93438.59;5007275;28;20135;-73
2021/10/12 07:02:57;;;;;;;1.30;1.20;;;;;;;8.57;70.39;93437.03;5011613;28;20113;-72
2021/10/12 07:05:23;;;;;;;1.20;1.10;;;;;;;8.40;70.86;93418.47;5004900;28;20618;-73
2021/10/12 07:07:48;;;;;;;1.48;1.30;;;;;;;8.33;71.56;93430.59;5008340;28;20641;-73
2021/10/12 07:10:14;;;;;;;1.67;1.20;;;;;;;8.48;71.24;93438.88;5010701;28;20026;-72
2021/10/12 07:12:40;;;;;;;1.23;1.05;;;;;;;8.64;70.90;93433.16;5010310;28;20157;-72
2021/10/12 07:15:07;;;;;;;1.13;0.98;;;;;;;8.69;70.01;93447.03;5011343;28;20037;-72
2021/10/12 07:17:33;;;;;;;1.33;1.20;;;;;;;8.67;70.05;93451.09;5007295;28;20073;-74
2021/10/12 07:19:59;;;;;;;1.48;1.35;;;;;;;8.50;69.90;93434.06;5012677;28;20047;-73
2021/10/12 07:22:24;;;;;;;1.48;1.30;;;;;;;8.51;69.88;93443.56;5007939;28;20033;-73
2021/10/12 07:24:51;;;;;;;1.10;1.00;;;;;;;8.53;70.17;93446.69;5008823;28;20069;-72
2021/10/12 07:27:16;;;;;;;1.48;1.38;;;;;;;8.59;70.09;93447.34;5006504;28;20099;-73
2021/10/12 07:29:45;;;;;;;1.60;1.30;;;;;;;8.17;70.79;93426.81;5007020;28;20099;-72
2021/10/12 07:32:11;;;;;;;1.83;1.30;;;;;;;8.40;71.14;93450.25;5012710;28;20079;-73
2021/10/12 07:34:37;;;;;;;1.98;1.35;;;;;;;8.36;71.08;93446.66;5006591;28;20690;-73
2021/10/12 07:37:03;;;;;;;6.15;1.67;;;;;;;8.38;70.80;93454.28;5007971;28;20488;-72
2021/10/12 07:39:28;;;;;;;2.80;1.33;;;;;;;8.28;71.06;93428.84;5007646;28;20099;-72
2021/10/12 07:41:53;;;;;;;1.40;1.27;;;;;;;8.40;71.04;93444.19;5011032;28;20033;-72
2021/10/12 07:44:19;;;;;;;1.70;1.40;;;;;;;8.63;71.28;93445.63;5001512;28;20041;-72
2021/10/12 07:46:44;;;;;;;1.40;1.20;;;;;;;8.68;70.40;93447.34;5007834;28;20407;-73
2021/10/12 07:49:10;;;;;;;3.78;1.60;;;;;;;8.57;70.18;93452.94;5004547;28;20033;-72
2021/10/12 07:51:35;;;;;;;1.45;1.33;;;;;;;8.72;70.00;93445.63;5006274;28;20315;-73
2021/10/12 07:54:02;;;;;;;1.33;1.20;;;;;;;8.71;69.93;93433.47;5011125;28;20041;-72
2021/10/12 07:56:36;;;;;;;2.30;2.00;;;;;;;8.80;69.61;93442.22;5005956;28;20033;-73
2021/10/12 07:59:03;;;;;;;3.17;2.50;;;;;;;8.71;69.88;93436.13;5006732;28;20044;-72
2021/10/12 08:01:29;;;;;;;2.53;1.73;;;;;;;8.73;70.17;93444.56;5009635;28;20026;-73
2021/10/12 08:03:54;;;;;;;1.77;1.58;;;;;;;8.77;70.08;93448.91;5013560;28;20076;-72
2021/10/12 08:06:19;;;;;;;2.55;1.60;;;;;;;8.76;70.12;93443.91;5014868;28;20045;-72
2021/10/12 08:08:45;;;;;;;2.15;1.35;;;;;;;8.81;70.33;93443.78;5004621;28;20333;-73
2021/10/12 08:11:10;;;;;;;2.88;1.40;;;;;;;8.76;69.61;93428.00;5009555;28;20061;-73
2021/10/12 08:13:36;;;;;;;1.42;1.20;;;;;;;8.80;70.09;93442.22;5015465;28;20108;-74
2021/10/12 08:16:08;;;;;;;1.20;1.10;;;;;;;8.56;70.64;93419.56;5008104;28;20017;-73
2021/10/12 08:18:34;;;;;;;1.50;1.25;;;;;;;8.75;70.87;93447.69;5011215;28;20266;-72
2021/10/12 08:21:00;;;;;;;1.70;1.60;;;;;;;8.86;70.69;93440.97;5014561;28;20041;-72
2021/10/12 08:23:26;;;;;;;1.85;1.40;;;;;;;9.02;69.76;93436.78;5009967;28;20041;-72
2021/10/12 08:25:51;;;;;;;1.67;1.05;;;;;;;8.66;69.24;93376.06;5012861;28;20064;-74
2021/10/12 08:28:17;;;;;;;2.40;1.70;;;;;;;8.91;69.77;93424.91;5013945;28;20496;-74
2021/10/12 08:30:43;;;;;;;3.33;1.75;;;;;;;8.84;70.57;93432.56;5009673;28;20081;-74
2021/10/12 08:33:08;;;;;;;2.75;1.30;;;;;;;8.76;70.60;93409.44;5016882;28;20646;-72
2021/10/12 08:35:33;;;;;;;1.80;1.25;;;;;;;8.76;70.92;93428.00;5012634;28;20037;-71
2021/10/12 08:37:59;;;;;;;1.20;1.10;;;;;;;8.64;71.01;93438.47;5013623;28;20060;-73
2021/10/12 08:40:24;;;;;;;1.40;1.23;;;;;;;8.69;70.92;93438.31;5010016;28;21435;-72
2021/10/12 08:42:52;;;;;;;1.48;1.33;;;;;;;8.73;71.52;93439.25;5014580;28;20124;-71
2021/10/12 08:45:23;;;;;;;2.08;1.40;;;;;;;8.88;70.81;93444.09;5009481;28;20530;-72
2021/10/12 08:47:50;;;;;;;1.85;1.60;;;;;;;9.01;70.52;93440.50;5008487;28;20519;-72
2021/10/12 08:50:19;;;;;;;1.85;1.30;;;;;;;8.81;70.08;93441.91;5015936;28;20071;-71
2021/10/12 08:52:45;;;;;;;1.10;1.00;;;;;;;8.47;70.91;93418.78;5012606;28;20124;-71
2021/10/12 08:55:12;;;;;;;1.48;1.38;;;;;;;8.52;71.88;93444.34;5017882;28;20032;-73
2021/10/12 08:57:44;;;;;;;1.63;1.52;;;;;;;8.56;71.96;93435.47;5013471;28;20188;-73
2021/10/12 09:00:13;;;;;;;1.13;1.10;;;;;;;8.48;71.74;93412.38;5008378;28;20734;-72
2021/10/12 09:06:02;;;;;;;2.15;1.70;;;;;;;8.44;71.95;93403.50;5012446;28;20080;-71
2021/10/12 09:08:35;;;;;;;1.30;1.20;;;;;;;8.31;72.38;93391.16;5009326;28;20140;-71
2021/10/12 09:11:03;;;;;;;1.52;1.33;;;;;;;8.46;72.16;93411.91;5010592;28;20139;-71
2021/10/12 09:13:42;;;;;;;1.75;1.40;;;;;;;8.66;72.39;93423.03;5012233;28;20120;-72
2021/10/12 09:16:10;;;;;;;1.50;1.40;;;;;;;8.78;71.54;93423.97;5010045;28;20576;-72
2021/10/12 09:18:52;;;;;;;1.50;1.40;;;;;;;8.78;70.88;93423.19;5011658;28;20555;-73
2021/10/12 09:21:30;;;;;;;1.88;1.38;;;;;;;8.53;71.71;93399.00;5009761;28;20594;-72
2021/10/12 09:24:08;;;;;;;1.40;1.30;;;;;;;8.57;72.41;93415.03;5016812;28;20263;-72
2021/10/12 09:26:37;;;;;;;1.55;1.45;;;;;;;8.68;72.67;93410.22;4998214;28;20099;-72
2021/10/12 09:29:17;;;;;;;3.45;1.70;;;;;;;8.73;72.19;93408.22;5016208;28;20859;-72
2021/10/12 09:31:45;;;;;;;3.58;1.92;;;;;;;8.90;71.82;93404.81;5005720;28;20036;-72
2021/10/12 09:34:14;;;;;;;1.90;1.48;;;;;;;9.00;71.33;93407.13;5014308;28;20052;-74
2021/10/12 09:36:41;;;;;;;2.38;1.73;;;;;;;9.05;70.82;93409.63;5011848;28;20041;-73
2021/10/12 09:39:14;;;;;;;1.85;1.48;;;;;;;9.03;71.13;93406.50;5012577;28;20037;-72
2021/10/12 09:41:42;;;;;;;2.80;2.35;;;;;;;8.81;71.10;93393.38;5014518;28;20045;-73
2021/10/12 09:44:09;;;;;;;1.60;1.50;;;;;;;8.92;71.10;93405.25;5008469;28;20586;-72
2021/10/12 09:46:35;;;;;;;2.78;1.98;;;;;;;9.06;71.16;93403.22;5013639;28;20463;-72
2021/10/12 09:49:20;;;;;;;2.13;1.88;;;;;;;9.11;70.59;93407.59;5009598;28;20017;-73
2021/10/12 09:52:06;;;;;;;1.90;1.58;;;;;;;9.10;69.92;93404.16;5013506;28;20044;-73
2021/10/12 09:54:37;;;;;;;1.77;1.45;;;;;;;9.16;70.12;93399.50;5009204;28;20054;-73
2021/10/12 09:57:05;;;;;;;1.95;1.77;;;;;;;9.17;69.96;93398.41;5012796;28;20627;-72
2021/10/12 09:59:31;;;;;;;2.33;2.00;;;;;;;9.17;70.35;93391.25;5011971;28;20092;-73
2021/10/12 10:01:58;;;;;;;1.90;1.77;;;;;;;9.28;69.76;93392.47;5011832;28;20037;-73
2021/10/12 10:04:27;;;;;;;2.53;1.80;;;;;;;9.13;70.27;93378.91;5013743;28;20030;-72
2021/10/12 10:07:01;;;;;;;2.05;1.85;;;;;;;9.27;69.85;93390.91;5007415;28;20134;-72
2021/10/12 10:09:27;;;;;;;1.53;1.40;;;;;;;9.37;69.50;93400.44;5000414;28;20041;-72
2021/10/12 10:11:53;;;;;;;1.67;1.58;;;;;;;9.33;69.36;93394.19;5013631;28;20278;-73
2021/10/12 10:14:19;;;;;;;3.13;1.42;;;;;;;9.34;69.00;93396.50;5009524;28;20069;-72
2021/10/12 10:16:47;;;;;;;4.28;1.77;;;;;;;9.28;69.41;93391.69;5011484;28;20594;-73
2021/10/12 10:19:17;;;;;;;2.22;1.67;;;;;;;9.22;69.52;93393.72;5014082;28;20025;-73
2021/10/12 10:21:47;;;;;;;2.42;1.60;;;;;;;9.27;69.23;93393.56;5009428;28;20365;-72
2021/10/12 10:24:33;;;;;;;2.63;2.17;;;;;;;9.28;69.85;93387.19;5016518;28;20132;-72
2021/10/12 10:27:00;;;;;;;2.40;1.90;;;;;;;9.20;69.31;93369.38;5001128;28;20040;-73
2021/10/12 10:29:38;;;;;;;2.63;1.80;;;;;;;9.29;69.33;93378.09;5012940;28;20025;-72
2021/10/12 10:32:20;;;;;;;8.35;4.40;;;;;;;9.39;69.02;93375.13;5007743;28;20408;-73
2021/10/12 10:35:02;;;;;;;3.88;2.50;;;;;;;9.41;69.68;93372.94;5010885;28;20033;-72
2021/10/12 10:37:30;;;;;;;3.13;2.00;;;;;;;9.45;69.29;93376.50;5011906;28;20029;-73
2021/10/12 10:40:35;;;;;;;2.67;2.05;;;;;;;9.64;68.97;93368.19;5012780;28;20033;-72
2021/10/12 10:43:01;;;;;;;2.70;2.03;;;;;;;9.63;68.60;93358.69;4996547;28;20563;-72
2021/10/12 10:45:41;;;;;;;2.90;2.13;;;;;;;9.82;68.36;93375.00;5014227;28;20412;-72
2021/10/12 10:48:10;;;;;;;2.10;1.77;;;;;;;9.94;67.25;93365.56;5000076;28;20063;-73
2021/10/12 10:50:36;;;;;;;2.67;1.88;;;;;;;9.87;67.08;93355.47;5011163;28;20106;-73
2021/10/12 10:53:03;;;;;;;11.00;2.75;;;;;;;9.92;66.67;93360.59;5011070;28;20492;-74
2021/10/12 10:55:34;;;;;;;4.50;2.92;;;;;;;10.02;66.82;93362.13;5015205;28;20032;-72
2021/10/12 10:58:17;;;;;;;5.05;2.92;;;;;;;10.02;66.79;93344.31;5011792;28;20067;-73
2021/10/12 11:00:53;;;;;;;3.38;1.92;;;;;;;10.01;66.61;93341.97;4999576;28;20952;-72
2021/10/12 11:03:36;;;;;;;2.72;2.00;;;;;;;10.07;66.61;93348.66;5013259;28;20045;-73
2021/10/12 11:06:11;;;;;;;3.30;2.85;;;;;;;9.85;67.67;93323.91;5012121;28;20132;-73
2021/10/12 11:08:40;;;;;;;2.97;2.00;;;;;;;10.02;66.56;93336.34;5008692;28;20037;-73
2021/10/12 11:11:09;;;;;;;3.33;2.42;;;;;;;10.12;66.67;93340.50;5008003;28;20855;-72
2021/10/12 11:13:43;;;;;;;4.25;3.13;;;;;;;9.92;66.49;93294.19;5012715;28;20385;-72
2021/10/12 11:16:17;;;;;;;3.22;2.88;;;;;;;10.15;66.24;93340.63;5009042;28;20022;-72
2021/10/12 11:18:44;;;;;;;4.57;2.15;;;;;;;9.88;66.66;93322.47;5007289;28;20579;-73
2021/10/12 11:21:13;;;;;;;3.78;2.28;;;;;;;9.87;66.93;93339.53;5012615;28;20130;-73
2021/10/12 11:23:40;;;;;;;3.13;2.53;;;;;;;9.91;67.35;93334.34;5010104;28;20095;-72
2021/10/12 11:26:33;;;;;;;2.72;2.25;;;;;;;9.78;68.06;93333.47;5009639;28;20049;-72
2021/10/12 11:29:02;;;;;;;3.60;2.35;;;;;;;9.88;67.64;93341.84;5008057;28;20073;-72
2021/10/12 11:31:29;;;;;;;5.53;2.63;;;;;;;10.01;67.46;93329.47;5009119;28;20649;-73
2021/10/12 11:33:57;;;;;;;3.70;2.05;;;;;;;10.03;66.57;93327.25;5004971;28;20061;-72
2021/10/12 11:36:32;;;;;;;5.43;3.05;;;;;;;9.86;66.77;93322.03;5012770;28;20033;-72
2021/10/12 11:39:00;;;;;;;3.97;3.15;;;;;;;9.95;67.14;93314.78;5014973;28;20174;-73
2021/10/12 11:41:33;;;;;;;2.30;1.67;;;;;;;10.12;66.31;93322.66;5016859;28;20037;-72
2021/10/12 11:44:01;;;;;;;3.58;2.38;;;;;;;10.19;66.65;93320.28;5010710;28;20040;-73